Buoy 21539

sailwx.info

Track history (hours):
 
Tides and Currents Weather Stations Pressure Air Temp Water Temp Dewpoint Dewpoint Depression Visibility Wind Speed Wind Dir Waves Ship Positions

Drifting buoy 21539

Last reported at 2016-Jul-23 14:10 UTC. Time now 2016-Jul-23 16:56 UTC.
Position N 47°31' W 136°04'.

Barometer 1024.3 mb
Water temperature 13.8 ° C

Date/timePositionNaut miles runAvg speedWind from/ knotsBaromVisibWave heightAir tempDewpointWater temp
2016-Jul-23 14:10N 47°31' W 136°04'0 0.5 1024.3 13.8
2016-Jul-23 13:10N 47°31' W 136°03'1 0.7 1024.1 13.9
2016-Jul-23 12:10N 47°31' W 136°04'1 1.1 1024.2 13.9
2016-Jul-23 11:10N 47°32' W 136°06'2 0.4 1024.5 13.9
2016-Jul-23 06:10N 47°32' W 136°09'0 0.1 1025.3 14.0
2016-Jul-23 04:10N 47°32' W 136°09'1 0.7 1025.0 14.0
2016-Jul-23 03:10N 47°33' W 136°09'1 0.7 1024.8 14.0
2016-Jul-23 02:10N 47°33' W 136°10'1 0.7 1024.9 14.1
2016-Jul-23 01:10N 47°33' W 136°11'0 0.5 1025.0 14.1
2016-Jul-23 00:10N 47°34' W 136°11'0 0.0 1025.0 14.2
2016-Jul-22 23:10N 47°34' W 136°11'0 0.0 1025.0 14.2
2016-Jul-22 22:10N 47°34' W 136°11'2 1.2 1025.1 14.1
2016-Jul-22 20:10N 47°33' W 136°14'0 0.1 1024.8 14.0
2016-Jul-22 18:10N 47°34' W 136°14'0 0.4 1024.4 14.0
2016-Jul-22 17:10N 47°34' W 136°15'1 0.9 1024.5 14.0
2016-Jul-22 16:10N 47°34' W 136°14'2 0.8 1023.9 14.0
2016-Jul-22 14:10N 47°33' W 136°16'0 0.2 1023.4 14.0
2016-Jul-22 13:10N 47°34' W 136°16'0 0.1 1023.3 14.0
2016-Jul-22 12:10N 47°34' W 136°16'1 1.1 1022.6 14.0
2016-Jul-22 11:10N 47°33' W 136°17'1 0.2 1022.6 14.0
2016-Jul-22 06:10N 47°33' W 136°17'0 0.1 1022.9 14.0
2016-Jul-22 04:10N 47°33' W 136°17'1 0.5 1022.6 14.0
2016-Jul-22 03:10N 47°34' W 136°17'0 0.4 1022.5 14.1
2016-Jul-22 02:10N 47°34' W 136°18'0 0.2 1022.2 14.1
2016-Jul-22 01:10N 47°34' W 136°18'1 1.4 1022.1 14.2
2016-Jul-22 00:10N 47°33' W 136°20'0 0.0 1021.9 14.1
2016-Jul-21 23:10N 47°33' W 136°20'0 0.2 1021.9 14.1
2016-Jul-21 22:10N 47°33' W 136°20'3 1.3 1022.0 14.0
2016-Jul-21 20:10N 47°31' W 136°21'0 0.3 1021.6 13.9
2016-Jul-21 19:10N 47°31' W 136°21'0 0.1 1021.3 13.8
2016-Jul-21 17:10N 47°31' W 136°21'0 0.2 1020.7 13.7
2016-Jul-21 16:10N 47°31' W 136°20'1 0.6 1020.2 13.7
2016-Jul-21 15:10N 47°31' W 136°20'1 0.7 1019.8 13.7
2016-Jul-21 14:10N 47°31' W 136°21'1 0.6 1019.4 13.7
2016-Jul-21 13:10N 47°32' W 136°20'1 1.0 1019.3 13.7
2016-Jul-21 12:10N 47°32' W 136°22'1 1.5 1019.0 13.7
2016-Jul-21 11:10N 47°31' W 136°22'0 0.1 1019.0 13.7
2016-Jul-21 07:10N 47°30' W 136°22'1 0.3 1019.0 13.7
2016-Jul-21 05:10N 47°30' W 136°22'1 0.6 1018.7 13.7
2016-Jul-21 04:10N 47°31' W 136°21'0 0.4 1018.7 13.7
2016-Jul-21 03:10N 47°31' W 136°22'0 0.4 1018.9 13.7
2016-Jul-21 02:10N 47°31' W 136°23'1 0.6 1019.1 13.7
2016-Jul-21 01:10N 47°31' W 136°23'1 1.4 1019.3 13.6
2016-Jul-21 00:10N 47°32' W 136°24'1 1.3 1019.4 13.6
2016-Jul-20 23:10N 47°31' W 136°25'1 0.4 1019.4 13.6
2016-Jul-20 21:10N 47°30' W 136°25'0 0.1 1019.5 13.6
2016-Jul-20 19:10N 47°30' W 136°24'1 0.9 1019.5 13.6
2016-Jul-20 18:10N 47°30' W 136°26'0 0.3 1019.6 13.6
2016-Jul-20 17:10N 47°30' W 136°25'1 1.1 1019.7 13.6
2016-Jul-20 16:10N 47°30' W 136°26'1 0.7 1019.5 13.6
2016-Jul-20 15:10N 47°31' W 136°26'0 0.3 1019.5 13.6
2016-Jul-20 14:10N 47°31' W 136°26'0 0.1 1019.3 13.6
2016-Jul-20 13:10N 47°31' W 136°26'2 0.8 1019.3 13.6
2016-Jul-20 11:10N 47°32' W 136°28'0 0.0 1019.6 13.6
2016-Jul-20 08:10N 47°32' W 136°28'1 0.4 1020.2 13.7
2016-Jul-20 06:10N 47°31' W 136°28'1 0.5 1020.0 13.7
2016-Jul-20 05:10N 47°31' W 136°28'0 0.1 1019.7 13.7
2016-Jul-20 04:10N 47°31' W 136°28'1 1.0 1019.6 13.7
2016-Jul-20 03:10N 47°32' W 136°28'1 0.5 1019.8 13.7
2016-Jul-20 02:10N 47°33' W 136°28'1 1.4 1019.7 13.7
2016-Jul-20 01:10N 47°32' W 136°30'1 1.2 1019.9 13.7
2016-Jul-20 00:10N 47°33' W 136°29'1 1.2 1020.0 13.7
2016-Jul-19 23:10N 47°34' W 136°31'1 0.4 1020.0 13.7
2016-Jul-19 21:10N 47°33' W 136°30'1 0.5 1019.8 13.6
2016-Jul-19 19:10N 47°33' W 136°32'1 0.3 1019.5 13.5
2016-Jul-19 17:10N 47°33' W 136°31'0 0.1 1019.3 13.5
2016-Jul-19 16:10N 47°33' W 136°31'1 1.0 1019.0 13.5
2016-Jul-19 15:10N 47°34' W 136°30'1 1.1 1018.8 13.4
2016-Jul-19 14:10N 47°34' W 136°32'0 0.0 1018.6 13.4
2016-Jul-19 13:10N 47°34' W 136°32'1 0.9 1018.7 13.4
2016-Jul-19 12:10N 47°35' W 136°32'1 0.4 1018.6 13.4
2016-Jul-19 10:10N 47°35' W 136°33'0 0.0 1018.8 13.5
2016-Jul-19 09:10N 47°35' W 136°33'0 0.0 1018.9 13.4
2016-Jul-19 07:10N 47°35' W 136°33'0 0.4 1019.6 13.5
2016-Jul-19 06:10N 47°35' W 136°33'0 0.2 1019.8 13.5
2016-Jul-19 05:10N 47°36' W 136°33'0 0.4 1019.6 13.5
2016-Jul-19 04:10N 47°36' W 136°33'1 0.7 1019.5 13.5
2016-Jul-19 03:10N 47°35' W 136°34'0 0.4 1019.6 13.5
2016-Jul-19 02:10N 47°36' W 136°33'0 0.0 1019.7 13.5
2016-Jul-19 01:10N 47°36' W 136°33'0 0.0 1020.1 13.5
2016-Jul-19 00:10N 47°36' W 136°33'1 1.5 1020.2 13.5
2016-Jul-18 23:10N 47°37' W 136°34'0 0.2 1020.3 13.4
2016-Jul-18 21:10N 47°37' W 136°33'1 0.7 1020.5 13.2
2016-Jul-18 19:10N 47°38' W 136°35'0 0.3 1020.7 13.2
2016-Jul-18 18:10N 47°38' W 136°35'0 0.0 1020.7 13.2
2016-Jul-18 17:10N 47°38' W 136°35'1 1.3 1021.1 13.1
2016-Jul-18 16:10N 47°38' W 136°37'1 0.5 1021.1 13.1
2016-Jul-18 14:10N 47°39' W 136°36'1 0.8 1021.7 13.1
2016-Jul-18 13:10N 47°39' W 136°37'1 0.5 1021.8 13.1
2016-Jul-18 12:10N 47°38' W 136°38'1 0.5 1021.8 13.1
2016-Jul-18 11:10N 47°39' W 136°37'0 0.0 1022.3 13.1
2016-Jul-18 10:10N 47°39' W 136°37'1 0.3 1022.4 13.1
2016-Jul-18 07:10N 47°39' W 136°37'1 0.9 1023.8 13.1
2016-Jul-18 06:10N 47°40' W 136°38'0 0.4 1024.3 13.1
2016-Jul-18 05:10N 47°40' W 136°38'0 0.1 1024.2 13.1
2016-Jul-18 04:10N 47°40' W 136°38'0 0.4 1024.5 13.1
2016-Jul-18 03:10N 47°40' W 136°38'0 0.4 1024.8 13.1
2016-Jul-18 02:10N 47°40' W 136°39'0 0.4 1025.4 13.0
2016-Jul-18 01:10N 47°40' W 136°39'1 1.0 1025.7 13.0
2016-Jul-18 00:10N 47°41' W 136°38'1 0.7 1026.2 13.0
2016-Jul-17 23:10N 47°41' W 136°39'1 0.3 1026.4 13.0
2016-Jul-17 21:10N 47°42' W 136°40'1 0.7 1027.2 13.0
2016-Jul-17 20:10N 47°42' W 136°41'1 0.3 1027.6 13.0
2016-Jul-17 18:10N 47°43' W 136°41'0 0.1 1028.2 13.0
2016-Jul-17 16:10N 47°43' W 136°41'0 0.3 1028.7 13.0
2016-Jul-17 15:10N 47°43' W 136°41'1 1.1 1028.8 12.9
2016-Jul-17 14:10N 47°43' W 136°40'0 0.4 1029.2 12.9
2016-Jul-17 13:10N 47°43' W 136°39'0 0.0 1029.4 12.9
2016-Jul-17 12:10N 47°43' W 136°39'3 3.2 1029.5 12.9
2016-Jul-17 11:10N 47°46' W 136°42'0 0.0 1030.0 12.9
2016-Jul-17 07:10N 47°46' W 136°42'1 0.6 1031.1 13.0
2016-Jul-17 05:10N 47°47' W 136°42'0 0.3 1031.2 13.2
2016-Jul-17 04:10N 47°47' W 136°43'1 0.7 1031.4 13.2
2016-Jul-17 03:10N 47°48' W 136°43'1 0.7 1031.5 13.2
2016-Jul-17 02:10N 47°48' W 136°43'0 0.2 1031.7 13.2
2016-Jul-17 01:10N 47°48' W 136°42'0 0.5 1031.9 13.2
2016-Jul-17 00:10N 47°47' W 136°42'1 0.7 1032.0 13.2
2016-Jul-16 23:10N 47°48' W 136°42'0 0.0 1032.1 13.2
2016-Jul-16 22:10N 47°48' W 136°42'1 1.4 1032.1 13.2
2016-Jul-16 21:10N 47°49' W 136°42'2 1.8 1031.8 13.2
2016-Jul-16 20:10N 47°51' W 136°43'0 0.1 1031.6 13.1
2016-Jul-16 18:10N 47°51' W 136°43'1 0.8 1031.4 13.1
2016-Jul-16 17:10N 47°51' W 136°44'1 1.1 1031.5 13.1
2016-Jul-16 16:10N 47°52' W 136°45'1 1.3 1031.4 13.1
2016-Jul-16 15:10N 47°53' W 136°46'1 1.0 1031.6 13.1
2016-Jul-16 14:10N 47°52' W 136°46'0 0.0 1031.4 13.1
2016-Jul-16 13:10N 47°52' W 136°46'0 0.0 1031.3 13.0
2016-Jul-16 12:10N 47°52' W 136°46'2 0.9 1031.7 13.0
2016-Jul-16 10:10N 47°54' W 136°45'1 0.4 1032.1 13.1
2016-Jul-16 07:10N 47°55' W 136°47'0 0.0 1032.7 13.2
2016-Jul-16 06:10N 47°55' W 136°47'1 1.1 1032.6 13.2
2016-Jul-16 05:10N 47°55' W 136°45'0 0.4 1032.5 13.2
2016-Jul-16 04:10N 47°55' W 136°46'0 0.4 1032.5 13.2
2016-Jul-16 03:10N 47°55' W 136°46'0 0.1 1032.5 13.2
2016-Jul-16 02:10N 47°55' W 136°46'1 0.8 1032.6 13.2
2016-Jul-16 01:10N 47°56' W 136°46'0 0.3 1032.8 13.2
2016-Jul-16 00:10N 47°56' W 136°47'1 0.6 1033.0 13.2
2016-Jul-15 23:10N 47°56' W 136°48'0 0.0 1033.2 13.2
2016-Jul-15 22:10N 47°56' W 136°47'1 1.4 1033.4 13.2
2016-Jul-15 21:10N 47°58' W 136°49'0 0.4 1033.3 13.2
2016-Jul-15 20:10N 47°58' W 136°48'0 0.0 1033.3 13.2
2016-Jul-15 19:10N 47°58' W 136°48'2 2.0 1033.4 13.1
2016-Jul-15 18:10N 47°58' W 136°51'0 0.2 1033.4 13.1
2016-Jul-15 16:10N 47°58' W 136°51'2 1.8 1033.3 13.2
2016-Jul-15 15:10N 47°58' W 136°54'1 1.0 1033.3 13.2
2016-Jul-15 14:10N 47°57' W 136°53'1 1.2 1033.2 13.2
2016-Jul-15 13:10N 47°59' W 136°53'1 0.7 1033.2 13.2
2016-Jul-15 12:10N 47°58' W 136°54'1 0.3 1033.5 13.2
2016-Jul-15 08:10N 47°60' W 136°55'0 0.5 1034.1 13.2
2016-Jul-15 07:10N 47°59' W 136°55'0 0.4 1034.2 13.2
2016-Jul-15 06:10N 47°59' W 136°56'1 0.8 1034.2 13.2
2016-Jul-15 05:10N 47°60' W 136°57'1 0.6 1033.7 13.2
2016-Jul-15 04:10N 47°60' W 136°57'0 0.5 1033.4 13.3
2016-Jul-15 03:10N 47°60' W 136°58'0 0.1 1033.2 13.4
2016-Jul-15 02:10N 47°60' W 136°58'1 0.6 1033.4 13.4
2016-Jul-15 00:10N 47°59' W 136°59'1 0.4 1033.7 13.4
2016-Jul-14 22:10N 47°59' W 137°00'0 0.3 1033.6 13.4
2016-Jul-14 21:10N 47°59' W 137°00'0 0.4 1033.8 13.1
2016-Jul-14 20:10N 47°59' W 137°01'0 0.4 1033.6 13.2
2016-Jul-14 19:10N 47°59' W 137°01'0 0.0 1033.3 13.0
2016-Jul-14 18:10N 47°59' W 137°01'1 0.9 1033.1 12.8
2016-Jul-14 17:10N 47°60' W 137°03'0 0.0 1032.7 12.8
2016-Jul-14 16:10N 47°60' W 137°03'1 1.2 1032.2 12.8
2016-Jul-14 15:10N 47°60' W 137°04'0 0.1 1031.9 12.8
2016-Jul-14 14:10N 47°60' W 137°04'1 1.1 1031.7 12.8
2016-Jul-14 13:10N 47°59' W 137°06'1 0.6 1031.3 12.8
2016-Jul-14 12:10N 47°59' W 137°05'1 1.3 1031.1 12.8
2016-Jul-14 11:10N 47°58' W 137°06'0 0.5 1031.3 12.8
2016-Jul-14 10:10N 47°58' W 137°07'0 0.0 1031.2 12.8
2016-Jul-14 06:10N 47°58' W 137°07'0 0.4 1030.2 12.9
2016-Jul-14 05:10N 47°59' W 137°07'1 1.2 1029.5 12.8
2016-Jul-14 04:10N 47°59' W 137°09'0 0.1 1029.1 13.0
2016-Jul-14 03:10N 47°59' W 137°09'1 1.1 1028.8 13.0
2016-Jul-14 02:10N 47°60' W 137°10'1 0.7 1028.4 13.1
2016-Jul-14 01:10N 47°59' W 137°10'1 1.1 1028.3 13.1
2016-Jul-14 00:10N 47°59' W 137°12'1 0.6 1028.2 13.0
2016-Jul-13 23:10N 47°58' W 137°12'0 0.0 1028.2 12.8
2016-Jul-13 22:10N 47°58' W 137°12'1 0.9 1027.9 12.8
2016-Jul-13 21:10N 47°58' W 137°13'1 0.6 1027.6 12.5
2016-Jul-13 20:10N 47°58' W 137°14'0 0.2 1027.3 12.5
2016-Jul-13 18:10N 47°58' W 137°14'1 0.3 1026.1 12.4
2016-Jul-13 14:10N 47°59' W 137°15'   1024.1 12.3
Track history (hours):
 
Tides and Currents Weather Stations Pressure Air Temp Water Temp Dewpoint Dewpoint Depression Visibility Wind Speed Wind Dir Waves Ship Positions

Drifting buoy 21539

Last reported at 2016-Jul-23 14:10 UTC. Time now 2016-Jul-23 16:56 UTC.
Position N 47°31' W 136°04'.

Barometer 1024.3 mb
Water temperature 13.8 ° C

Date/timePositionNaut miles runAvg speedWind from/ knotsBaromVisibWave heightAir tempDewpointWater temp
2016-Jul-23 14:10N 47°31' W 136°04'0 0.5 1024.3 13.8
2016-Jul-23 13:10N 47°31' W 136°03'1 0.7 1024.1 13.9
2016-Jul-23 12:10N 47°31' W 136°04'1 1.1 1024.2 13.9
2016-Jul-23 11:10N 47°32' W 136°06'2 0.4 1024.5 13.9
2016-Jul-23 06:10N 47°32' W 136°09'0 0.1 1025.3 14.0
2016-Jul-23 04:10N 47°32' W 136°09'1 0.7 1025.0 14.0
2016-Jul-23 03:10N 47°33' W 136°09'1 0.7 1024.8 14.0
2016-Jul-23 02:10N 47°33' W 136°10'1 0.7 1024.9 14.1
2016-Jul-23 01:10N 47°33' W 136°11'0 0.5 1025.0 14.1
2016-Jul-23 00:10N 47°34' W 136°11'0 0.0 1025.0 14.2
2016-Jul-22 23:10N 47°34' W 136°11'0 0.0 1025.0 14.2
2016-Jul-22 22:10N 47°34' W 136°11'2 1.2 1025.1 14.1
2016-Jul-22 20:10N 47°33' W 136°14'0 0.1 1024.8 14.0
2016-Jul-22 18:10N 47°34' W 136°14'0 0.4 1024.4 14.0
2016-Jul-22 17:10N 47°34' W 136°15'1 0.9 1024.5 14.0
2016-Jul-22 16:10N 47°34' W 136°14'2 0.8 1023.9 14.0
2016-Jul-22 14:10N 47°33' W 136°16'0 0.2 1023.4 14.0
2016-Jul-22 13:10N 47°34' W 136°16'0 0.1 1023.3 14.0
2016-Jul-22 12:10N 47°34' W 136°16'1 1.1 1022.6 14.0
2016-Jul-22 11:10N 47°33' W 136°17'1 0.2 1022.6 14.0
2016-Jul-22 06:10N 47°33' W 136°17'0 0.1 1022.9 14.0
2016-Jul-22 04:10N 47°33' W 136°17'1 0.5 1022.6 14.0
2016-Jul-22 03:10N 47°34' W 136°17'0 0.4 1022.5 14.1
2016-Jul-22 02:10N 47°34' W 136°18'0 0.2 1022.2 14.1
2016-Jul-22 01:10N 47°34' W 136°18'1 1.4 1022.1 14.2
2016-Jul-22 00:10N 47°33' W 136°20'0 0.0 1021.9 14.1
2016-Jul-21 23:10N 47°33' W 136°20'0 0.2 1021.9 14.1
2016-Jul-21 22:10N 47°33' W 136°20'3 1.3 1022.0 14.0
2016-Jul-21 20:10N 47°31' W 136°21'0 0.3 1021.6 13.9
2016-Jul-21 19:10N 47°31' W 136°21'0 0.1 1021.3 13.8
2016-Jul-21 17:10N 47°31' W 136°21'0 0.2 1020.7 13.7
2016-Jul-21 16:10N 47°31' W 136°20'1 0.6 1020.2 13.7
2016-Jul-21 15:10N 47°31' W 136°20'1 0.7 1019.8 13.7
2016-Jul-21 14:10N 47°31' W 136°21'1 0.6 1019.4 13.7
2016-Jul-21 13:10N 47°32' W 136°20'1 1.0 1019.3 13.7
2016-Jul-21 12:10N 47°32' W 136°22'1 1.5 1019.0 13.7
2016-Jul-21 11:10N 47°31' W 136°22'0 0.1 1019.0 13.7
2016-Jul-21 07:10N 47°30' W 136°22'1 0.3 1019.0 13.7
2016-Jul-21 05:10N 47°30' W 136°22'1 0.6 1018.7 13.7
2016-Jul-21 04:10N 47°31' W 136°21'0 0.4 1018.7 13.7
2016-Jul-21 03:10N 47°31' W 136°22'0 0.4 1018.9 13.7
2016-Jul-21 02:10N 47°31' W 136°23'1 0.6 1019.1 13.7
2016-Jul-21 01:10N 47°31' W 136°23'1 1.4 1019.3 13.6
2016-Jul-21 00:10N 47°32' W 136°24'1 1.3 1019.4 13.6
2016-Jul-20 23:10N 47°31' W 136°25'1 0.4 1019.4 13.6
2016-Jul-20 21:10N 47°30' W 136°25'0 0.1 1019.5 13.6
2016-Jul-20 19:10N 47°30' W 136°24'1 0.9 1019.5 13.6
2016-Jul-20 18:10N 47°30' W 136°26'0 0.3 1019.6 13.6
2016-Jul-20 17:10N 47°30' W 136°25'1 1.1 1019.7 13.6
2016-Jul-20 16:10N 47°30' W 136°26'1 0.7 1019.5 13.6
2016-Jul-20 15:10N 47°31' W 136°26'0 0.3 1019.5 13.6
2016-Jul-20 14:10N 47°31' W 136°26'0 0.1 1019.3 13.6
2016-Jul-20 13:10N 47°31' W 136°26'2 0.8 1019.3 13.6
2016-Jul-20 11:10N 47°32' W 136°28'0 0.0 1019.6 13.6
2016-Jul-20 08:10N 47°32' W 136°28'1 0.4 1020.2 13.7
2016-Jul-20 06:10N 47°31' W 136°28'1 0.5 1020.0 13.7
2016-Jul-20 05:10N 47°31' W 136°28'0 0.1 1019.7 13.7
2016-Jul-20 04:10N 47°31' W 136°28'1 1.0 1019.6 13.7
2016-Jul-20 03:10N 47°32' W 136°28'1 0.5 1019.8 13.7
2016-Jul-20 02:10N 47°33' W 136°28'1 1.4 1019.7 13.7
2016-Jul-20 01:10N 47°32' W 136°30'1 1.2 1019.9 13.7
2016-Jul-20 00:10N 47°33' W 136°29'1 1.2 1020.0 13.7
2016-Jul-19 23:10N 47°34' W 136°31'1 0.4 1020.0 13.7
2016-Jul-19 21:10N 47°33' W 136°30'1 0.5 1019.8 13.6
2016-Jul-19 19:10N 47°33' W 136°32'1 0.3 1019.5 13.5
2016-Jul-19 17:10N 47°33' W 136°31'0 0.1 1019.3 13.5
2016-Jul-19 16:10N 47°33' W 136°31'1 1.0 1019.0 13.5
2016-Jul-19 15:10N 47°34' W 136°30'1 1.1 1018.8 13.4
2016-Jul-19 14:10N 47°34' W 136°32'0 0.0 1018.6 13.4
2016-Jul-19 13:10N 47°34' W 136°32'1 0.9 1018.7 13.4
2016-Jul-19 12:10N 47°35' W 136°32'1 0.4 1018.6 13.4
2016-Jul-19 10:10N 47°35' W 136°33'0 0.0 1018.8 13.5
2016-Jul-19 09:10N 47°35' W 136°33'0 0.0 1018.9 13.4
2016-Jul-19 07:10N 47°35' W 136°33'0 0.4 1019.6 13.5
2016-Jul-19 06:10N 47°35' W 136°33'0 0.2 1019.8 13.5
2016-Jul-19 05:10N 47°36' W 136°33'0 0.4 1019.6 13.5
2016-Jul-19 04:10N 47°36' W 136°33'1 0.7 1019.5 13.5
2016-Jul-19 03:10N 47°35' W 136°34'0 0.4 1019.6 13.5
2016-Jul-19 02:10N 47°36' W 136°33'0 0.0 1019.7 13.5
2016-Jul-19 01:10N 47°36' W 136°33'0 0.0 1020.1 13.5
2016-Jul-19 00:10N 47°36' W 136°33'1 1.5 1020.2 13.5
2016-Jul-18 23:10N 47°37' W 136°34'0 0.2 1020.3 13.4
2016-Jul-18 21:10N 47°37' W 136°33'1 0.7 1020.5 13.2
2016-Jul-18 19:10N 47°38' W 136°35'0 0.3 1020.7 13.2
2016-Jul-18 18:10N 47°38' W 136°35'0 0.0 1020.7 13.2
2016-Jul-18 17:10N 47°38' W 136°35'1 1.3 1021.1 13.1
2016-Jul-18 16:10N 47°38' W 136°37'1 0.5 1021.1 13.1
2016-Jul-18 14:10N 47°39' W 136°36'1 0.8 1021.7 13.1
2016-Jul-18 13:10N 47°39' W 136°37'1 0.5 1021.8 13.1
2016-Jul-18 12:10N 47°38' W 136°38'1 0.5 1021.8 13.1
2016-Jul-18 11:10N 47°39' W 136°37'0 0.0 1022.3 13.1
2016-Jul-18 10:10N 47°39' W 136°37'1 0.3 1022.4 13.1
2016-Jul-18 07:10N 47°39' W 136°37'1 0.9 1023.8 13.1
2016-Jul-18 06:10N 47°40' W 136°38'0 0.4 1024.3 13.1
2016-Jul-18 05:10N 47°40' W 136°38'0 0.1 1024.2 13.1
2016-Jul-18 04:10N 47°40' W 136°38'0 0.4 1024.5 13.1
2016-Jul-18 03:10N 47°40' W 136°38'0 0.4 1024.8 13.1
2016-Jul-18 02:10N 47°40' W 136°39'0 0.4 1025.4 13.0
2016-Jul-18 01:10N 47°40' W 136°39'1 1.0 1025.7 13.0
2016-Jul-18 00:10N 47°41' W 136°38'1 0.7 1026.2 13.0
2016-Jul-17 23:10N 47°41' W 136°39'1 0.3 1026.4 13.0
2016-Jul-17 21:10N 47°42' W 136°40'1 0.7 1027.2 13.0
2016-Jul-17 20:10N 47°42' W 136°41'1 0.3 1027.6 13.0
2016-Jul-17 18:10N 47°43' W 136°41'0 0.1 1028.2 13.0
2016-Jul-17 16:10N 47°43' W 136°41'0 0.3 1028.7 13.0
2016-Jul-17 15:10N 47°43' W 136°41'1 1.1 1028.8 12.9
2016-Jul-17 14:10N 47°43' W 136°40'0 0.4 1029.2 12.9
2016-Jul-17 13:10N 47°43' W 136°39'0 0.0 1029.4 12.9
2016-Jul-17 12:10N 47°43' W 136°39'3 3.2 1029.5 12.9
2016-Jul-17 11:10N 47°46' W 136°42'0 0.0 1030.0 12.9
2016-Jul-17 07:10N 47°46' W 136°42'1 0.6 1031.1 13.0
2016-Jul-17 05:10N 47°47' W 136°42'0 0.3 1031.2 13.2
2016-Jul-17 04:10N 47°47' W 136°43'1 0.7 1031.4 13.2
2016-Jul-17 03:10N 47°48' W 136°43'1 0.7 1031.5 13.2
2016-Jul-17 02:10N 47°48' W 136°43'0 0.2 1031.7 13.2
2016-Jul-17 01:10N 47°48' W 136°42'0 0.5 1031.9 13.2
2016-Jul-17 00:10N 47°47' W 136°42'1 0.7 1032.0 13.2
2016-Jul-16 23:10N 47°48' W 136°42'0 0.0 1032.1 13.2
2016-Jul-16 22:10N 47°48' W 136°42'1 1.4 1032.1 13.2
2016-Jul-16 21:10N 47°49' W 136°42'2 1.8 1031.8 13.2
2016-Jul-16 20:10N 47°51' W 136°43'0 0.1 1031.6 13.1
2016-Jul-16 18:10N 47°51' W 136°43'1 0.8 1031.4 13.1
2016-Jul-16 17:10N 47°51' W 136°44'1 1.1 1031.5 13.1
2016-Jul-16 16:10N 47°52' W 136°45'1 1.3 1031.4 13.1
2016-Jul-16 15:10N 47°53' W 136°46'1 1.0 1031.6 13.1
2016-Jul-16 14:10N 47°52' W 136°46'0 0.0 1031.4 13.1
2016-Jul-16 13:10N 47°52' W 136°46'0 0.0 1031.3 13.0
2016-Jul-16 12:10N 47°52' W 136°46'2 0.9 1031.7 13.0
2016-Jul-16 10:10N 47°54' W 136°45'1 0.4 1032.1 13.1
2016-Jul-16 07:10N 47°55' W 136°47'0 0.0 1032.7 13.2
2016-Jul-16 06:10N 47°55' W 136°47'1 1.1 1032.6 13.2
2016-Jul-16 05:10N 47°55' W 136°45'0 0.4 1032.5 13.2
2016-Jul-16 04:10N 47°55' W 136°46'0 0.4 1032.5 13.2
2016-Jul-16 03:10N 47°55' W 136°46'0 0.1 1032.5 13.2
2016-Jul-16 02:10N 47°55' W 136°46'1 0.8 1032.6 13.2
2016-Jul-16 01:10N 47°56' W 136°46'0 0.3 1032.8 13.2
2016-Jul-16 00:10N 47°56' W 136°47'1 0.6 1033.0 13.2
2016-Jul-15 23:10N 47°56' W 136°48'0 0.0 1033.2 13.2
2016-Jul-15 22:10N 47°56' W 136°47'1 1.4 1033.4 13.2
2016-Jul-15 21:10N 47°58' W 136°49'0 0.4 1033.3 13.2
2016-Jul-15 20:10N 47°58' W 136°48'0 0.0 1033.3 13.2
2016-Jul-15 19:10N 47°58' W 136°48'2 2.0 1033.4 13.1
2016-Jul-15 18:10N 47°58' W 136°51'0 0.2 1033.4 13.1
2016-Jul-15 16:10N 47°58' W 136°51'2 1.8 1033.3 13.2
2016-Jul-15 15:10N 47°58' W 136°54'1 1.0 1033.3 13.2
2016-Jul-15 14:10N 47°57' W 136°53'1 1.2 1033.2 13.2
2016-Jul-15 13:10N 47°59' W 136°53'1 0.7 1033.2 13.2
2016-Jul-15 12:10N 47°58' W 136°54'1 0.3 1033.5 13.2
2016-Jul-15 08:10N 47°60' W 136°55'0 0.5 1034.1 13.2
2016-Jul-15 07:10N 47°59' W 136°55'0 0.4 1034.2 13.2
2016-Jul-15 06:10N 47°59' W 136°56'1 0.8 1034.2 13.2
2016-Jul-15 05:10N 47°60' W 136°57'1 0.6 1033.7 13.2
2016-Jul-15 04:10N 47°60' W 136°57'0 0.5 1033.4 13.3
2016-Jul-15 03:10N 47°60' W 136°58'0 0.1 1033.2 13.4
2016-Jul-15 02:10N 47°60' W 136°58'1 0.6 1033.4 13.4
2016-Jul-15 00:10N 47°59' W 136°59'1 0.4 1033.7 13.4
2016-Jul-14 22:10N 47°59' W 137°00'0 0.3 1033.6 13.4
2016-Jul-14 21:10N 47°59' W 137°00'0 0.4 1033.8 13.1
2016-Jul-14 20:10N 47°59' W 137°01'0 0.4 1033.6 13.2
2016-Jul-14 19:10N 47°59' W 137°01'0 0.0 1033.3 13.0
2016-Jul-14 18:10N 47°59' W 137°01'1 0.9 1033.1 12.8
2016-Jul-14 17:10N 47°60' W 137°03'0 0.0 1032.7 12.8
2016-Jul-14 16:10N 47°60' W 137°03'1 1.2 1032.2 12.8
2016-Jul-14 15:10N 47°60' W 137°04'0 0.1 1031.9 12.8
2016-Jul-14 14:10N 47°60' W 137°04'1 1.1 1031.7 12.8
2016-Jul-14 13:10N 47°59' W 137°06'1 0.6 1031.3 12.8
2016-Jul-14 12:10N 47°59' W 137°05'1 1.3 1031.1 12.8
2016-Jul-14 11:10N 47°58' W 137°06'0 0.5 1031.3 12.8
2016-Jul-14 10:10N 47°58' W 137°07'0 0.0 1031.2 12.8
2016-Jul-14 06:10N 47°58' W 137°07'0 0.4 1030.2 12.9
2016-Jul-14 05:10N 47°59' W 137°07'1 1.2 1029.5 12.8
2016-Jul-14 04:10N 47°59' W 137°09'0 0.1 1029.1 13.0
2016-Jul-14 03:10N 47°59' W 137°09'1 1.1 1028.8 13.0
2016-Jul-14 02:10N 47°60' W 137°10'1 0.7 1028.4 13.1
2016-Jul-14 01:10N 47°59' W 137°10'1 1.1 1028.3 13.1
2016-Jul-14 00:10N 47°59' W 137°12'1 0.6 1028.2 13.0
2016-Jul-13 23:10N 47°58' W 137°12'0 0.0 1028.2 12.8
2016-Jul-13 22:10N 47°58' W 137°12'1 0.9 1027.9 12.8
2016-Jul-13 21:10N 47°58' W 137°13'1 0.6 1027.6 12.5
2016-Jul-13 20:10N 47°58' W 137°14'0 0.2 1027.3 12.5
2016-Jul-13 18:10N 47°58' W 137°14'1 0.3 1026.1 12.4
2016-Jul-13 14:10N 47°59' W 137°15'   1024.1 12.3

Dump ship's entire track history